Bk Champ — DSPN5 — position and weather

sailwx.info

Track history (hours):
 
Tides and Currents Weather Stations Pressure Air Temp Water Temp Dewpoint Dewpoint Depression Visibility Wind Speed Wind Dir Waves Ship Positions

Bk Champ

Last reported at 2014-Oct-31 05:23 UTC. Time now 2014-Oct-31 18:39 UTC.
Position N 41°25' E 029°15'.

Length 176 m; draft 5.9 m.

Type: Cargo ship. MMSI: 441299000.

Date/timePositionNaut miles runAvg speedWind from/ knotsBaromVisibWave heightAir tempDewpointWater temp
2014-Oct-31 05:23N 41°25' E 029°15'7 7.8
2014-Oct-31 04:32N 41°19' E 029°13'27 8.8
2014-Oct-31 01:31N 40°55' E 028°58'7 6.5
2014-Oct-31 00:31N 40°49' E 028°54'5 4.6
2014-Oct-30 23:21N 40°45' E 028°58'1 0.9
2014-Oct-30 22:09N 40°46' E 028°58'1 0.8
2014-Oct-30 21:27N 40°46' E 028°59'1 0.8
2014-Oct-30 20:09N 40°47' E 028°60'2 0.9
2014-Oct-30 18:30N 40°48' E 029°01'4 4.5
2014-Oct-30 17:32N 40°44' E 029°03'5 4.7
2014-Oct-30 16:30N 40°41' E 029°08'1 1.4
2014-Oct-30 15:30N 40°42' E 029°06'1 1.4
2014-Oct-30 14:30N 40°43' E 029°05'1 1.2
2014-Oct-30 13:30N 40°43' E 029°03'1 1.1
2014-Oct-30 12:18N 40°44' E 029°02'1 1.1
2014-Oct-30 11:12N 40°45' E 029°01'1 1.0
2014-Oct-30 10:24N 40°45' E 028°60'1 1.1
2014-Oct-30 09:30N 40°46' E 028°59'1 1.1
2014-Oct-30 08:30N 40°47' E 028°58'5 4.9
2014-Oct-30 07:32N 40°49' E 028°53'4 3.2
2014-Oct-30 06:24N 40°50' E 028°48'8 8.5
2014-Oct-30 05:30N 40°49' E 028°38'14511.0
2014-Oct-29 16:15N 39°46' E 025°46'125 9.8
2014-Oct-29 03:30N 37°54' E 024°36'1313.2
2014-Oct-29 02:31N 37°41' E 024°31'1212.8
2014-Oct-29 01:34N 37°31' E 024°22'1313.2
2014-Oct-29 00:33N 37°22' E 024°10'1813.2
2014-Oct-28 23:10N 37°08' E 023°55'3812.9
2014-Oct-28 20:11N 36°38' E 023°26'  
Track history (hours):
 
Tides and Currents Weather Stations Pressure Air Temp Water Temp Dewpoint Dewpoint Depression Visibility Wind Speed Wind Dir Waves Ship Positions

Bk Champ

Last reported at 2014-Oct-31 05:23 UTC. Time now 2014-Oct-31 18:39 UTC.
Position N 41°25' E 029°15'.

Length 176 m; draft 5.9 m.

Type: Cargo ship. MMSI: 441299000.

Date/timePositionNaut miles runAvg speedWind from/ knotsBaromVisibWave heightAir tempDewpointWater temp
2014-Oct-31 05:23N 41°25' E 029°15'7 7.8
2014-Oct-31 04:32N 41°19' E 029°13'27 8.8
2014-Oct-31 01:31N 40°55' E 028°58'7 6.5
2014-Oct-31 00:31N 40°49' E 028°54'5 4.6
2014-Oct-30 23:21N 40°45' E 028°58'1 0.9
2014-Oct-30 22:09N 40°46' E 028°58'1 0.8
2014-Oct-30 21:27N 40°46' E 028°59'1 0.8
2014-Oct-30 20:09N 40°47' E 028°60'2 0.9
2014-Oct-30 18:30N 40°48' E 029°01'4 4.5
2014-Oct-30 17:32N 40°44' E 029°03'5 4.7
2014-Oct-30 16:30N 40°41' E 029°08'1 1.4
2014-Oct-30 15:30N 40°42' E 029°06'1 1.4
2014-Oct-30 14:30N 40°43' E 029°05'1 1.2
2014-Oct-30 13:30N 40°43' E 029°03'1 1.1
2014-Oct-30 12:18N 40°44' E 029°02'1 1.1
2014-Oct-30 11:12N 40°45' E 029°01'1 1.0
2014-Oct-30 10:24N 40°45' E 028°60'1 1.1
2014-Oct-30 09:30N 40°46' E 028°59'1 1.1
2014-Oct-30 08:30N 40°47' E 028°58'5 4.9
2014-Oct-30 07:32N 40°49' E 028°53'4 3.2
2014-Oct-30 06:24N 40°50' E 028°48'8 8.5
2014-Oct-30 05:30N 40°49' E 028°38'14511.0
2014-Oct-29 16:15N 39°46' E 025°46'125 9.8
2014-Oct-29 03:30N 37°54' E 024°36'1313.2
2014-Oct-29 02:31N 37°41' E 024°31'1212.8
2014-Oct-29 01:34N 37°31' E 024°22'1313.2
2014-Oct-29 00:33N 37°22' E 024°10'1813.2
2014-Oct-28 23:10N 37°08' E 023°55'3812.9
2014-Oct-28 20:11N 36°38' E 023°26'  

Dump ship's entire track history